Ana Sayfa
METAR-TAF:

METAR-TAF

Havaalanları :

Curaçao, Hollanda Antilleri

Enlem: 12-12N, Boylam: 068-58W, yükseklik: 9 m

Güncel hava durumu gözlemi

Rapor saat 05:00 UTC de 27 dakika önce yapıldı.
Rüzgar doğudan 11 kt
Sıcaklık 27°C
Nem 79%
Basınç 1014 hPa
Görüş mesafesi 10 km veya daha fazla
2300 ft yükseklikte parçalı bulutlu

METAR: TNCC 200500Z 10011KT 9999 SCT023 27/23 Q1014 NOSIG

Saat: 01:27 (05:27 UTC)

Tahmin

Rapor saat 22:00 UTC de 7 saat ve 27 dakika önce yapıldı.
Ayın 20'si saat 00 UTC'den ayın 20'si saat 24 UTC'ye kadar geçerli Tahmin
Rüzgar doğudan 14 kt
Görüş mesafesi 10 km veya daha fazla
2000 ft yükseklikte parçalı bulutlu

TAF: TNCC 192200Z 2000/2024 10014KT 9999 SCT020

4.000'den fazla havaalanı için hava durumu gözlemleri ve tahminleri (METAR ve TAF raporları).

Kullanılabilir istasyonlar harita üzerinde sarı ve kırmızı noktalarla gösterilir.

İstasyonun adını görmek için fareyi noktanın üzerinde gezdirin.

Sonrasında hava gözlem ve tahminlerini görmek için tıklayın.

Haritayı değiştirmek için: yaklaştırmak için siyah artı işaretli yeşil düğmeye ve uzaklaştırmak için de eksi işaretli düğmeye hızla tıklayın; bitişik haritalar için yeşil okları kullanın.


METAR-TAF: